Time;durP1;ratioP1;P1;durP2;ratioP2;P2;SDS_P1;SDS_P2;PMS_P1;PMS_P2;Temp;Humidity;BMP_temperature;BMP_pressure;BME280_temperature;BME280_humidity;BME280_pressure;Samples;Min_cycle;Max_cycle;Signal;HPM_P1;HPM_P2
2023/03/19 00:01:05;;;;;;;2.67;1.52;;;;;;;10.54;100.00;100939.50;5072403;28;20468;-53
2023/03/19 00:03:34;;;;;;;3.50;1.77;;;;;;;10.54;100.00;100942.97;5069708;28;20095;-52
2023/03/19 00:06:03;;;;;;;3.63;1.40;;;;;;;10.50;100.00;100941.50;5052151;28;20077;-53
2023/03/19 00:08:31;;;;;;;4.55;1.80;;;;;;;10.42;100.00;100939.34;5050883;28;20073;-53
2023/03/19 00:11:05;;;;;;;2.95;1.50;;;;;;;10.43;100.00;100945.44;5053913;28;20556;-53
2023/03/19 00:13:34;;;;;;;4.22;1.85;;;;;;;10.39;100.00;100936.03;5055092;28;20036;-54
2023/03/19 00:16:04;;;;;;;2.63;1.60;;;;;;;10.32;100.00;100938.19;5052819;28;20056;-52
2023/03/19 00:18:33;;;;;;;2.85;1.70;;;;;;;10.28;100.00;100937.53;5050332;28;20044;-54
2023/03/19 00:21:01;;;;;;;4.35;1.80;;;;;;;10.28;100.00;100931.41;5051759;28;20337;-53
2023/03/19 00:23:30;;;;;;;3.97;1.65;;;;;;;10.36;100.00;100938.88;5053925;28;20060;-50
2023/03/19 00:25:58;;;;;;;4.68;1.80;;;;;;;10.29;100.00;100935.75;5057260;28;20044;-53
2023/03/19 00:28:27;;;;;;;4.78;1.83;;;;;;;10.32;100.00;100932.91;5062871;28;20087;-52
2023/03/19 00:30:55;;;;;;;3.97;1.58;;;;;;;10.26;100.00;100936.78;5060907;28;20044;-54
2023/03/19 00:33:26;;;;;;;3.08;1.52;;;;;;;10.19;100.00;100926.75;5072278;28;20090;-53
2023/03/19 00:35:54;;;;;;;3.75;1.90;;;;;;;10.16;100.00;100943.56;5064950;28;20124;-53
2023/03/19 00:38:23;;;;;;;4.45;1.88;;;;;;;10.13;100.00;100935.88;5067045;28;20040;-52
2023/03/19 00:40:52;;;;;;;2.42;1.70;;;;;;;10.10;100.00;100938.69;5068846;28;20041;-54
2023/03/19 00:43:20;;;;;;;4.07;1.83;;;;;;;10.12;100.00;100936.81;5067994;28;20545;-52
2023/03/19 00:45:49;;;;;;;3.70;1.65;;;;;;;10.05;100.00;100938.97;5065111;28;20075;-52
2023/03/19 00:48:17;;;;;;;4.72;1.88;;;;;;;10.09;100.00;100945.72;5069417;28;20127;-52
2023/03/19 00:50:47;;;;;;;3.20;1.80;;;;;;;10.06;100.00;100942.44;5070612;28;20060;-52
2023/03/19 00:53:16;;;;;;;4.07;2.15;;;;;;;10.00;100.00;100940.19;5069837;28;20055;-52
2023/03/19 00:55:45;;;;;;;4.22;1.98;;;;;;;10.01;100.00;100937.47;5057027;28;20056;-52
2023/03/19 00:58:14;;;;;;;4.47;2.50;;;;;;;10.02;100.00;100941.78;5067003;28;20072;-50
2023/03/19 01:00:43;;;;;;;4.85;2.50;;;;;;;9.96;100.00;100944.78;5065188;28;20045;-55
2023/03/19 01:03:11;;;;;;;5.97;2.50;;;;;;;9.94;100.00;100942.25;5056773;28;20049;-51
2023/03/19 01:05:40;;;;;;;4.57;2.33;;;;;;;9.98;100.00;100942.91;5065378;28;20044;-52
2023/03/19 01:08:10;;;;;;;5.10;2.53;;;;;;;9.97;100.00;100943.84;5064077;28;20182;-52
2023/03/19 01:10:38;;;;;;;4.88;2.53;;;;;;;9.97;100.00;100944.69;5060802;28;20072;-53
2023/03/19 01:13:07;;;;;;;3.80;2.30;;;;;;;10.01;100.00;100942.72;5064813;28;20071;-51
2023/03/19 01:15:36;;;;;;;5.13;2.20;;;;;;;10.00;100.00;100943.66;5057004;28;20106;-53
2023/03/19 01:18:05;;;;;;;5.25;3.03;;;;;;;9.91;100.00;100944.22;5062269;28;20064;-50
2023/03/19 01:20:34;;;;;;;5.78;2.50;;;;;;;9.88;100.00;100945.22;5059007;28;20040;-51
2023/03/19 01:23:03;;;;;;;4.65;2.65;;;;;;;9.84;100.00;100933.22;5062585;28;20071;-51
2023/03/19 01:25:33;;;;;;;12.93;2.80;;;;;;;9.88;100.00;100937.34;5063834;28;20041;-52
2023/03/19 01:28:02;;;;;;;4.60;2.70;;;;;;;9.78;100.00;100939.69;5061461;28;20361;-52
2023/03/19 01:30:31;;;;;;;6.05;3.08;;;;;;;9.84;100.00;100941.09;5062358;28;20391;-53
2023/03/19 01:33:00;;;;;;;6.80;3.63;;;;;;;9.66;100.00;100934.34;5061512;28;20496;-52
2023/03/19 01:35:29;;;;;;;5.93;3.47;;;;;;;9.66;100.00;100936.97;5064335;28;20053;-53
2023/03/19 01:37:57;;;;;;;6.45;3.80;;;;;;;9.66;100.00;100939.59;5061798;28;20048;-50
2023/03/19 01:40:26;;;;;;;5.95;3.60;;;;;;;9.59;100.00;100939.97;5061788;28;20049;-50
2023/03/19 01:42:57;;;;;;;7.10;4.30;;;;;;;9.54;100.00;100938.53;5061659;28;20056;-52
2023/03/19 01:45:34;;;;;;;7.72;4.57;;;;;;;9.50;100.00;100931.78;5064184;28;20041;-52
2023/03/19 01:48:04;;;;;;;8.50;5.45;;;;;;;9.56;100.00;100928.81;5071766;28;20549;-53
2023/03/19 01:50:40;;;;;;;8.18;5.72;;;;;;;9.53;100.00;100929.84;5069482;28;20055;-51
2023/03/19 01:53:10;;;;;;;8.15;5.72;;;;;;;9.54;100.00;100930.66;5069739;28;20053;-51
2023/03/19 01:55:41;;;;;;;9.23;6.07;;;;;;;9.47;100.00;100919.69;5070611;28;20101;-53
2023/03/19 01:58:11;;;;;;;8.65;5.60;;;;;;;9.47;100.00;100935.44;5070156;28;20388;-52
2023/03/19 02:00:39;;;;;;;8.82;4.82;;;;;;;9.48;100.00;100921.38;5069448;28;20103;-51
2023/03/19 02:03:08;;;;;;;10.30;5.63;;;;;;;9.47;100.00;100924.94;5062968;28;20105;-53
2023/03/19 02:05:38;;;;;;;8.02;4.85;;;;;;;9.53;100.00;100924.59;5067758;28;20712;-51
2023/03/19 02:08:09;;;;;;;7.88;4.65;;;;;;;9.49;100.00;100920.44;5064240;28;20040;-52
2023/03/19 02:10:39;;;;;;;7.00;4.35;;;;;;;9.47;100.00;100923.16;5059745;28;20041;-53
2023/03/19 02:13:07;;;;;;;5.50;3.33;;;;;;;9.45;100.00;100917.16;5066050;28;20052;-52
2023/03/19 02:15:37;;;;;;;7.25;3.63;;;;;;;9.47;100.00;100933.66;5066308;28;20052;-53
2023/03/19 02:18:07;;;;;;;6.63;2.90;;;;;;;9.44;100.00;100935.63;5064104;28;20036;-51
2023/03/19 02:20:40;;;;;;;6.32;3.03;;;;;;;9.45;100.00;100945.19;5065824;28;20384;-53
2023/03/19 02:23:18;;;;;;;5.25;3.03;;;;;;;9.43;100.00;100933.94;5067670;28;20452;-50
2023/03/19 02:26:04;;;;;;;7.40;3.00;;;;;;;9.42;100.00;100935.72;5059308;28;20123;-50
2023/03/19 02:28:33;;;;;;;5.72;2.75;;;;;;;9.39;100.00;100933.25;5054620;28;20049;-52
2023/03/19 02:31:02;;;;;;;5.97;2.90;;;;;;;9.47;100.00;100922.31;5059241;28;20041;-53
2023/03/19 02:33:31;;;;;;;5.68;2.92;;;;;;;9.46;100.00;100928.47;5063286;28;20390;-53
2023/03/19 02:36:03;;;;;;;5.85;2.97;;;;;;;9.44;100.00;100933.00;5059314;28;20139;-54
2023/03/19 02:38:34;;;;;;;6.20;3.15;;;;;;;9.44;100.00;100933.00;5065430;28;20111;-53
2023/03/19 02:41:07;;;;;;;5.63;3.03;;;;;;;9.44;100.00;100940.88;5060620;28;20048;-54
2023/03/19 02:43:37;;;;;;;7.47;3.30;;;;;;;9.48;100.00;100939.75;5060131;28;20070;-48
2023/03/19 02:46:09;;;;;;;5.82;2.97;;;;;;;9.49;100.00;100938.81;5062097;28;20044;-52
2023/03/19 02:48:40;;;;;;;7.03;3.22;;;;;;;9.49;100.00;100933.56;5067423;28;20033;-50
2023/03/19 02:51:08;;;;;;;5.18;2.85;;;;;;;9.51;100.00;100928.22;5071513;28;20101;-52
2023/03/19 02:53:37;;;;;;;6.30;3.13;;;;;;;9.52;100.00;100936.00;5062057;28;20124;-54
2023/03/19 02:56:07;;;;;;;5.78;3.42;;;;;;;9.58;100.00;100940.06;5046872;28;20091;-51
2023/03/19 02:58:36;;;;;;;6.05;3.38;;;;;;;9.53;100.00;100940.34;5050219;28;20049;-52
2023/03/19 03:01:05;;;;;;;8.02;3.13;;;;;;;9.52;100.00;100933.38;5047209;28;20132;-53
2023/03/19 03:03:33;;;;;;;7.93;3.53;;;;;;;9.51;100.00;100946.59;5084442;28;20056;-52
2023/03/19 03:06:02;;;;;;;6.68;3.75;;;;;;;9.62;100.00;100949.44;5077682;28;20076;-51
2023/03/19 03:08:30;;;;;;;4.95;3.28;;;;;;;9.58;100.00;100948.75;5072024;28;20047;-52
2023/03/19 03:10:59;;;;;;;7.38;3.63;;;;;;;9.52;100.00;100946.50;5062623;28;20123;-53
2023/03/19 03:13:28;;;;;;;5.82;3.40;;;;;;;9.55;100.00;100946.31;5052228;28;20485;-53
2023/03/19 03:15:57;;;;;;;7.22;3.72;;;;;;;9.54;100.00;100949.03;5051910;28;20103;-52
2023/03/19 03:18:26;;;;;;;6.10;3.47;;;;;;;9.51;100.00;100955.31;5069813;28;20055;-52
2023/03/19 03:20:54;;;;;;;6.82;4.03;;;;;;;9.51;100.00;100952.69;5059990;28;20056;-51
2023/03/19 03:23:23;;;;;;;7.25;3.63;;;;;;;9.53;100.00;100965.72;5063726;28;20036;-50
2023/03/19 03:25:52;;;;;;;6.70;4.00;;;;;;;9.53;100.00;100960.47;5069087;28;20507;-51
2023/03/19 03:28:20;;;;;;;6.95;3.80;;;;;;;9.52;100.00;100957.03;5062382;28;20378;-54
2023/03/19 03:30:50;;;;;;;7.28;3.65;;;;;;;9.54;100.00;100962.19;5067175;28;20116;-54
2023/03/19 03:33:19;;;;;;;7.35;3.75;;;;;;;9.53;100.00;100960.47;5063296;28;20056;-53
2023/03/19 03:35:47;;;;;;;8.27;4.32;;;;;;;9.55;100.00;100962.06;5062529;28;20127;-53
2023/03/19 03:38:17;;;;;;;9.43;4.22;;;;;;;9.53;100.00;100963.97;5066002;28;20143;-53
2023/03/19 03:40:45;;;;;;;9.60;4.50;;;;;;;9.54;100.00;100956.91;5061878;28;20132;-53
2023/03/19 03:43:14;;;;;;;7.75;4.35;;;;;;;9.52;100.00;100958.81;5058157;28;20066;-52
2023/03/19 03:45:44;;;;;;;8.40;4.10;;;;;;;9.52;100.00;100964.06;5068578;28;20385;-53
2023/03/19 03:48:15;;;;;;;7.80;4.38;;;;;;;9.51;100.00;100963.19;5074047;28;20114;-52
2023/03/19 03:50:43;;;;;;;7.57;4.13;;;;;;;9.51;100.00;100967.63;5075313;28;20047;-52
2023/03/19 03:53:12;;;;;;;7.43;3.83;;;;;;;9.50;100.00;100965.91;5074063;28;20044;-52
2023/03/19 03:55:40;;;;;;;8.35;5.00;;;;;;;9.50;100.00;100966.75;5071851;28;20045;-53
2023/03/19 03:58:09;;;;;;;7.35;4.28;;;;;;;9.61;100.00;100964.34;5072702;28;20052;-53
2023/03/19 04:00:37;;;;;;;9.15;5.00;;;;;;;9.63;100.00;100962.47;5075372;28;20569;-52
2023/03/19 04:03:06;;;;;;;8.00;4.60;;;;;;;9.60;100.00;100972.31;5056522;28;20102;-53
2023/03/19 04:05:36;;;;;;;8.95;4.57;;;;;;;9.58;100.00;100961.88;5065251;28;20056;-53
2023/03/19 04:08:05;;;;;;;7.75;4.78;;;;;;;9.52;100.00;100964.88;5074983;28;20049;-54
2023/03/19 04:10:35;;;;;;;9.30;4.93;;;;;;;9.43;100.00;100975.94;5074170;28;20033;-53
2023/03/19 04:13:04;;;;;;;11.15;5.40;;;;;;;9.47;100.00;100966.94;5069431;28;20090;-54
2023/03/19 04:15:32;;;;;;;9.63;5.60;;;;;;;9.40;100.00;100970.88;5072734;28;20055;-52
2023/03/19 04:18:02;;;;;;;8.75;5.20;;;;;;;9.34;100.00;100966.81;5070968;28;20044;-53
2023/03/19 04:20:30;;;;;;;8.25;5.30;;;;;;;9.36;100.00;100966.72;5066075;28;20507;-53
2023/03/19 04:23:01;;;;;;;9.52;5.22;;;;;;;9.38;100.00;100970.09;5067678;28;20127;-52
2023/03/19 04:25:29;;;;;;;8.63;4.88;;;;;;;9.38;100.00;100967.47;5068607;28;20048;-51
2023/03/19 04:27:57;;;;;;;8.85;5.22;;;;;;;9.35;100.00;100968.50;5063435;28;20094;-53
2023/03/19 04:30:26;;;;;;;9.88;4.97;;;;;;;9.33;100.00;100965.13;5063596;28;20090;-53
2023/03/19 04:32:55;;;;;;;8.23;5.35;;;;;;;9.32;100.00;100971.28;5066510;28;20094;-53
2023/03/19 04:35:24;;;;;;;8.27;5.40;;;;;;;9.37;100.00;100973.69;5065759;28;20119;-53
2023/03/19 04:37:52;;;;;;;8.55;5.53;;;;;;;9.36;100.00;100977.22;5060164;28;20048;-50
2023/03/19 04:40:23;;;;;;;9.55;5.95;;;;;;;9.33;100.00;100980.03;5065745;28;20147;-53
2023/03/19 04:42:51;;;;;;;9.63;5.22;;;;;;;9.33;100.00;100982.66;5060305;28;20114;-53
2023/03/19 04:45:19;;;;;;;10.23;5.90;;;;;;;9.25;100.00;100978.69;5064079;28;20044;-53
2023/03/19 04:47:48;;;;;;;9.55;5.72;;;;;;;9.24;100.00;100984.00;5064764;28;20075;-51
2023/03/19 04:50:17;;;;;;;11.07;6.13;;;;;;;9.25;100.00;100989.16;5064793;28;20040;-49
2023/03/19 04:52:46;;;;;;;8.75;5.75;;;;;;;9.24;100.00;100989.25;5063047;28;20554;-52
2023/03/19 04:55:15;;;;;;;9.70;6.70;;;;;;;9.16;100.00;100981.81;5070590;28;20506;-53
2023/03/19 04:57:45;;;;;;;9.52;6.50;;;;;;;9.13;100.00;100987.25;5070684;28;20052;-50
2023/03/19 05:00:15;;;;;;;11.30;6.72;;;;;;;9.14;100.00;100992.41;5073459;28;20072;-52
2023/03/19 05:02:46;;;;;;;11.63;7.53;;;;;;;9.13;100.00;100990.75;5072928;28;20075;-53
2023/03/19 05:05:15;;;;;;;9.63;6.88;;;;;;;9.19;100.00;100992.16;5070005;28;20056;-52
2023/03/19 05:07:43;;;;;;;11.25;7.63;;;;;;;9.13;100.00;100993.38;5072446;28;20119;-52
2023/03/19 05:10:12;;;;;;;12.65;7.78;;;;;;;9.08;100.00;100997.16;5073349;28;20106;-53
2023/03/19 05:12:43;;;;;;;12.25;7.97;;;;;;;9.06;100.00;100996.41;5073809;28;20135;-52
2023/03/19 05:15:13;;;;;;;11.75;7.88;;;;;;;9.13;100.00;101005.63;5062943;28;20518;-51
2023/03/19 05:17:41;;;;;;;11.50;7.95;;;;;;;9.08;100.00;101005.88;5056493;28;20099;-49
2023/03/19 05:20:11;;;;;;;12.25;8.13;;;;;;;9.09;100.00;101010.22;5071560;28;20036;-51
2023/03/19 05:22:40;;;;;;;15.02;8.90;;;;;;;9.10;100.00;101005.81;5072624;28;20049;-51
2023/03/19 05:25:08;;;;;;;13.88;8.35;;;;;;;9.21;100.00;101013.91;5060109;28;20508;-50
2023/03/19 05:27:37;;;;;;;14.00;8.65;;;;;;;9.13;100.00;101003.84;5055428;28;20056;-52
2023/03/19 05:30:07;;;;;;;15.55;9.05;;;;;;;9.14;100.00;101007.31;5065801;28;20086;-50
2023/03/19 05:32:39;;;;;;;13.25;9.00;;;;;;;9.14;100.00;101012.56;5065261;28;20132;-51
2023/03/19 05:35:09;;;;;;;16.08;10.05;;;;;;;9.17;100.00;101011.53;5061182;28;20553;-50
2023/03/19 05:37:37;;;;;;;15.77;10.18;;;;;;;9.11;100.00;101012.75;5053773;28;20115;-52
2023/03/19 05:40:07;;;;;;;14.60;10.10;;;;;;;9.09;100.00;101010.22;5051279;28;20527;-50
2023/03/19 05:42:35;;;;;;;18.48;10.75;;;;;;;9.07;100.00;101017.31;5064007;28;20045;-50
2023/03/19 05:45:04;;;;;;;15.45;10.18;;;;;;;9.12;100.00;101014.41;5058175;28;20044;-49
2023/03/19 05:47:33;;;;;;;17.83;10.90;;;;;;;9.13;100.00;101013.50;5051797;28;20052;-51
2023/03/19 05:50:03;;;;;;;16.30;11.20;;;;;;;9.19;100.00;101025.41;5049948;28;20119;-49
2023/03/19 05:52:32;;;;;;;18.00;11.30;;;;;;;9.15;100.00;101024.75;5055827;28;20076;-51
2023/03/19 05:55:01;;;;;;;15.73;10.82;;;;;;;9.15;100.00;101035.25;5051721;28;20059;-52
2023/03/19 05:57:29;;;;;;;16.85;11.25;;;;;;;9.14;100.00;101023.91;5053478;28;20107;-52
2023/03/19 05:59:58;;;;;;;16.60;11.70;;;;;;;9.12;100.00;101035.41;5063011;28;20455;-53
2023/03/19 06:02:26;;;;;;;17.08;11.82;;;;;;;9.18;100.00;101039.50;5066094;28;20036;-52
2023/03/19 06:04:55;;;;;;;16.48;11.52;;;;;;;9.12;100.00;101035.41;5069237;28;20078;-51
2023/03/19 06:07:25;;;;;;;18.55;12.85;;;;;;;9.13;100.00;101037.97;5070758;28;20101;-50
2023/03/19 06:09:54;;;;;;;20.80;12.10;;;;;;;9.18;100.00;101042.13;5062757;28;20040;-52
2023/03/19 06:12:22;;;;;;;17.88;11.15;;;;;;;9.16;100.00;101038.72;5066528;28;20044;-52
2023/03/19 06:14:51;;;;;;;20.08;12.40;;;;;;;9.16;100.00;101049.22;5055385;28;20041;-51
2023/03/19 06:17:19;;;;;;;18.25;10.90;;;;;;;9.22;100.00;101054.97;5062716;28;20577;-51
2023/03/19 06:19:47;;;;;;;18.75;12.32;;;;;;;9.18;100.00;101052.59;5060104;28;20051;-51
2023/03/19 06:22:16;;;;;;;20.20;12.50;;;;;;;9.18;100.00;101065.72;5058394;28;20075;-52
2023/03/19 06:24:46;;;;;;;19.25;12.30;;;;;;;9.19;100.00;101067.41;5059579;28;20048;-49
2023/03/19 06:27:14;;;;;;;18.70;11.73;;;;;;;9.22;100.00;101059.38;5057853;28;20479;-53
2023/03/19 06:29:43;;;;;;;16.83;11.65;;;;;;;9.26;100.00;101069.59;5060864;28;20402;-51
2023/03/19 06:32:12;;;;;;;18.70;12.15;;;;;;;9.28;100.00;101067.75;5062072;28;20045;-49
2023/03/19 06:34:40;;;;;;;17.10;12.25;;;;;;;9.28;100.00;101066.88;5060404;28;20048;-50
2023/03/19 06:37:09;;;;;;;19.05;11.57;;;;;;;9.32;100.00;101078.06;5064153;28;20404;-50
2023/03/19 06:39:38;;;;;;;16.65;11.20;;;;;;;9.35;100.00;101083.16;5059271;28;20048;-50
2023/03/19 06:42:08;;;;;;;17.70;12.40;;;;;;;9.38;100.00;101080.34;5063295;28;20037;-51
2023/03/19 06:44:37;;;;;;;17.23;11.25;;;;;;;9.40;100.00;101083.75;5060667;28;20496;-51
2023/03/19 06:47:08;;;;;;;15.88;10.88;;;;;;;9.41;100.00;101085.44;5065033;28;20036;-49
2023/03/19 06:49:36;;;;;;;17.65;11.63;;;;;;;9.43;100.00;101096.69;5064444;28;20484;-51
2023/03/19 06:52:05;;;;;;;17.05;11.00;;;;;;;9.43;100.00;101094.88;5053197;28;21026;-52
2023/03/19 06:54:34;;;;;;;15.70;10.02;;;;;;;9.40;100.00;101094.25;5060099;28;20120;-49
2023/03/19 06:57:05;;;;;;;14.75;10.05;;;;;;;9.45;100.00;101090.41;5055509;28;20131;-52
2023/03/19 06:59:35;;;;;;;16.52;10.60;;;;;;;9.50;100.00;101087.53;5054423;28;20033;-49
2023/03/19 07:02:04;;;;;;;16.63;9.90;;;;;;;9.48;100.00;101094.66;5052805;28;20041;-49
2023/03/19 07:04:32;;;;;;;15.13;9.90;;;;;;;9.50;100.00;101086.69;5057436;28;20544;-52
2023/03/19 07:07:01;;;;;;;13.85;10.18;;;;;;;9.54;100.00;101102.16;5056314;28;20056;-49
2023/03/19 07:09:29;;;;;;;13.63;9.50;;;;;;;9.58;100.00;101106.31;5053505;28;20056;-49
2023/03/19 07:11:58;;;;;;;14.60;9.55;;;;;;;9.61;100.00;101103.53;5050820;28;20051;-51
2023/03/19 07:14:27;;;;;;;13.02;9.20;;;;;;;9.68;100.00;101100.53;5057734;28;20106;-53
2023/03/19 07:16:56;;;;;;;13.57;9.95;;;;;;;9.66;100.00;101113.75;5059532;28;20117;-53
2023/03/19 07:19:25;;;;;;;15.40;9.32;;;;;;;9.72;100.00;101110.78;5064062;28;20471;-51
2023/03/19 07:21:53;;;;;;;13.77;9.77;;;;;;;9.79;100.00;101113.91;5061888;28;20068;-52
2023/03/19 07:24:22;;;;;;;17.95;10.23;;;;;;;9.89;100.00;101114.22;5060731;28;20373;-52
2023/03/19 07:26:50;;;;;;;15.43;9.43;;;;;;;9.87;100.00;101122.22;5059361;28;20048;-53
2023/03/19 07:29:19;;;;;;;13.48;9.05;;;;;;;9.90;100.00;101122.03;5060412;28;20048;-53
2023/03/19 07:31:47;;;;;;;12.20;8.38;;;;;;;9.93;100.00;101127.09;5059344;28;20033;-51
2023/03/19 07:34:17;;;;;;;12.55;8.50;;;;;;;9.91;100.00;101136.00;5053137;28;20068;-52
2023/03/19 07:36:46;;;;;;;14.52;8.52;;;;;;;9.91;100.00;101131.59;5053775;28;20068;-53
2023/03/19 07:39:14;;;;;;;11.93;8.50;;;;;;;10.02;100.00;101132.75;5050918;28;20111;-51
2023/03/19 07:41:43;;;;;;;12.85;9.10;;;;;;;10.05;100.00;101133.41;5057495;28;20067;-51
2023/03/19 07:44:12;;;;;;;12.68;8.27;;;;;;;10.11;100.00;101137.47;5057592;28;20450;-53
2023/03/19 07:46:40;;;;;;;14.90;9.48;;;;;;;10.09;100.00;101134.94;5052781;28;20039;-53
2023/03/19 07:49:09;;;;;;;12.88;9.20;;;;;;;10.23;100.00;101139.38;5046946;28;20562;-53
2023/03/19 07:51:39;;;;;;;16.80;10.15;;;;;;;10.20;100.00;101142.19;5059736;28;20051;-49
2023/03/19 07:54:07;;;;;;;16.38;9.68;;;;;;;10.20;100.00;101144.81;5056355;28;20502;-50
2023/03/19 07:56:36;;;;;;;13.80;8.95;;;;;;;10.23;100.00;101149.88;5050287;28;20507;-51
2023/03/19 07:59:04;;;;;;;13.52;9.02;;;;;;;10.29;100.00;101148.69;5052758;28;20052;-50
2023/03/19 08:01:33;;;;;;;13.93;8.40;;;;;;;10.25;100.00;101149.78;5059264;28;20082;-51
2023/03/19 08:04:01;;;;;;;13.75;9.43;;;;;;;10.24;100.00;101148.97;5063781;28;20070;-53
2023/03/19 08:06:30;;;;;;;13.30;8.95;;;;;;;10.32;100.00;101149.34;5058667;28;20044;-50
2023/03/19 08:09:00;;;;;;;15.38;8.57;;;;;;;10.36;100.00;101151.81;5058394;28;20060;-52
2023/03/19 08:11:29;;;;;;;14.23;8.82;;;;;;;10.41;100.00;101147.16;5057154;28;20527;-52
2023/03/19 08:13:58;;;;;;;11.48;8.23;;;;;;;10.44;100.00;101150.44;5054226;28;20053;-49
2023/03/19 08:16:26;;;;;;;12.43;7.45;;;;;;;10.45;100.00;101149.50;5065469;28;20048;-52
2023/03/19 08:18:55;;;;;;;11.48;8.50;;;;;;;10.38;100.00;101152.59;5064905;28;20098;-50
2023/03/19 08:21:24;;;;;;;11.32;8.23;;;;;;;10.51;100.00;101155.31;5062711;28;20048;-50
2023/03/19 08:23:53;;;;;;;13.55;8.43;;;;;;;10.58;100.00;101164.53;5062187;28;20033;-49
2023/03/19 08:26:23;;;;;;;14.07;7.97;;;;;;;10.72;100.00;101155.81;5063163;28;20044;-51
2023/03/19 08:28:51;;;;;;;13.48;7.53;;;;;;;10.64;100.00;101162.38;5067839;28;20075;-51
2023/03/19 08:31:20;;;;;;;17.48;8.23;;;;;;;10.73;100.00;101168.03;5067707;28;20078;-49
2023/03/19 08:33:48;;;;;;;15.10;6.85;;;;;;;10.75;100.00;101177.50;5058435;28;20122;-50
2023/03/19 08:36:17;;;;;;;10.93;6.97;;;;;;;10.79;100.00;101172.91;5058595;28;20048;-49
2023/03/19 08:38:45;;;;;;;11.15;6.50;;;;;;;10.79;100.00;101170.28;5060200;28;20094;-50
2023/03/19 08:41:14;;;;;;;10.98;6.43;;;;;;;10.87;100.00;101178.56;5056945;28;20049;-51
2023/03/19 08:43:44;;;;;;;12.93;6.75;;;;;;;10.91;100.00;101185.31;5066725;28;20098;-49
2023/03/19 08:46:12;;;;;;;13.30;6.85;;;;;;;10.95;100.00;101193.88;5074584;28;20507;-49
2023/03/19 08:48:43;;;;;;;12.13;7.10;;;;;;;10.98;100.00;101191.91;5074461;28;20072;-48
2023/03/19 08:51:11;;;;;;;12.70;7.75;;;;;;;11.01;100.00;101198.75;5058418;28;20095;-49
2023/03/19 08:53:40;;;;;;;11.48;7.20;;;;;;;11.09;100.00;101190.41;5051112;28;20044;-48
2023/03/19 08:56:09;;;;;;;11.55;6.75;;;;;;;11.25;100.00;101201.66;5053525;28;20456;-52
2023/03/19 08:58:38;;;;;;;10.40;6.70;;;;;;;11.31;100.00;101203.06;5065945;28;20459;-51
2023/03/19 09:01:10;;;;;;;12.15;7.20;;;;;;;11.36;100.00;101203.63;5070279;28;20071;-50
2023/03/19 09:03:40;;;;;;;10.77;6.45;;;;;;;11.46;100.00;101207.38;5072949;28;20490;-49
2023/03/19 09:06:10;;;;;;;11.32;6.75;;;;;;;11.60;100.00;101208.28;5061458;28;20075;-52
2023/03/19 09:08:39;;;;;;;12.25;7.22;;;;;;;11.64;100.00;101208.00;5062435;28;20040;-53
2023/03/19 09:11:09;;;;;;;10.50;6.20;;;;;;;11.87;100.00;101208.28;5061650;28;20049;-53
2023/03/19 09:13:37;;;;;;;10.93;6.53;;;;;;;12.05;100.00;101208.91;5065718;28;20064;-53
2023/03/19 09:16:08;;;;;;;12.05;6.95;;;;;;;12.22;100.00;101218.38;5059843;28;20078;-50
2023/03/19 09:18:37;;;;;;;12.63;6.43;;;;;;;12.30;100.00;101223.97;5059895;28;20531;-53
2023/03/19 09:21:05;;;;;;;11.90;6.90;;;;;;;12.32;100.00;101222.09;5073066;28;20449;-53
2023/03/19 09:23:34;;;;;;;10.02;6.07;;;;;;;12.41;100.00;101219.78;5070326;28;20546;-52
2023/03/19 09:26:02;;;;;;;10.82;6.55;;;;;;;12.44;100.00;101223.06;5067151;28;20079;-52
2023/03/19 09:28:31;;;;;;;11.57;6.35;;;;;;;12.50;100.00;101225.28;5069901;28;20102;-51
2023/03/19 09:31:05;;;;;;;10.27;6.50;;;;;;;12.51;100.00;101226.97;5073902;28;20120;-53
2023/03/19 09:33:35;;;;;;;10.93;6.78;;;;;;;12.60;100.00;101230.78;5073322;28;20214;-53
2023/03/19 09:36:08;;;;;;;12.60;6.82;;;;;;;12.50;100.00;101224.44;5071803;28;20512;-53
2023/03/19 09:38:36;;;;;;;11.38;6.55;;;;;;;12.57;100.00;101227.50;5069729;28;20044;-52
2023/03/19 09:41:13;;;;;;;10.20;6.65;;;;;;;12.63;100.00;101229.75;5069199;28;20500;-50
2023/03/19 09:43:57;;;;;;;10.98;7.05;;;;;;;12.89;100.00;101233.22;5070267;28;20090;-52
2023/03/19 09:46:32;;;;;;;15.02;7.25;;;;;;;13.04;100.00;101233.13;5060889;28;20040;-50
2023/03/19 09:49:06;;;;;;;12.65;7.88;;;;;;;13.43;100.00;101237.44;5063172;28;20044;-53
2023/03/19 09:51:43;;;;;;;13.25;6.93;;;;;;;13.46;100.00;101237.22;5053367;28;20139;-51
2023/03/19 09:54:26;;;;;;;12.02;7.28;;;;;;;13.81;100.00;101236.50;5066050;28;20114;-52
2023/03/19 09:56:55;;;;;;;12.10;7.47;;;;;;;13.97;100.00;101241.47;5069389;28;20122;-50
2023/03/19 09:59:26;;;;;;;11.50;7.15;;;;;;;13.94;100.00;101236.41;5068332;28;20044;-51
2023/03/19 10:02:05;;;;;;;12.07;7.57;;;;;;;14.16;100.00;101240.13;5071300;28;20383;-51
2023/03/19 10:04:43;;;;;;;11.02;7.50;;;;;;;14.39;100.00;101248.19;5072378;28;20387;-50
2023/03/19 10:07:29;;;;;;;12.00;7.57;;;;;;;14.69;100.00;101243.22;5069468;28;20052;-53
2023/03/19 10:10:13;;;;;;;11.65;8.38;;;;;;;14.98;100.00;101245.47;5053121;28;20048;-48
2023/03/19 10:12:51;;;;;;;13.45;8.48;;;;;;;15.19;100.00;101237.63;5055854;28;20730;-51
2023/03/19 10:15:25;;;;;;;12.20;8.52;;;;;;;15.17;100.00;101251.94;5060914;28;20072;-52
2023/03/19 10:17:58;;;;;;;29.45;12.50;;;;;;;15.42;100.00;101247.38;5049118;28;20052;-51
2023/03/19 10:20:41;;;;;;;15.30;8.80;;;;;;;15.58;100.00;101250.47;5065782;28;20074;-51
2023/03/19 10:23:34;;;;;;;13.77;8.32;;;;;;;15.96;100.00;101259.81;5071838;28;20070;-52
2023/03/19 10:26:06;;;;;;;9.85;7.35;;;;;;;15.87;100.00;101257.94;5050201;28;20059;-50
2023/03/19 10:28:34;;;;;;;11.02;7.68;;;;;;;16.12;100.00;101247.97;5053518;28;20072;-49
2023/03/19 10:31:26;;;;;;;10.32;8.00;;;;;;;15.63;100.00;101255.44;5054000;28;20036;-52
2023/03/19 10:34:08;;;;;;;11.53;7.90;;;;;;;15.47;100.00;101263.75;5050206;28;20048;-46
2023/03/19 10:36:38;;;;;;;14.18;9.27;;;;;;;15.89;100.00;101266.59;5056090;28;20119;-48
2023/03/19 10:39:07;;;;;;;14.27;9.10;;;;;;;15.77;100.00;101262.28;5053608;28;20072;-48
2023/03/19 10:41:50;;;;;;;14.50;9.48;;;;;;;15.96;100.00;101259.81;5054699;28;20102;-50
2023/03/19 10:44:29;;;;;;;14.27;10.13;;;;;;;15.80;100.00;101264.69;5057318;28;20071;-52
2023/03/19 10:46:59;;;;;;;12.50;9.95;;;;;;;15.88;100.00;101259.63;5052019;28;20049;-53
2023/03/19 10:49:27;;;;;;;16.27;10.15;;;;;;;16.02;100.00;101264.66;5056813;28;20049;-49
2023/03/19 10:51:59;;;;;;;16.35;10.90;;;;;;;16.15;100.00;101263.66;5050549;28;20475;-52
2023/03/19 10:54:29;;;;;;;14.13;11.88;;;;;;;16.19;100.00;101259.75;5052824;28;20044;-48
2023/03/19 10:56:59;;;;;;;15.05;11.80;;;;;;;16.56;100.00;101262.00;5052434;28;20060;-51
2023/03/19 10:59:38;;;;;;;13.10;11.60;;;;;;;16.54;100.00;101261.31;5052426;28;20113;-48
2023/03/19 11:02:17;;;;;;;13.63;11.40;;;;;;;16.94;100.00;101265.91;5056265;28;20387;-50
2023/03/19 11:04:46;;;;;;;15.55;11.65;;;;;;;17.29;100.00;101262.03;5057022;28;20519;-52
2023/03/19 11:07:20;;;;;;;15.70;11.90;;;;;;;17.38;100.00;101258.56;5048021;28;20059;-52
2023/03/19 11:09:50;;;;;;;15.88;12.13;;;;;;;17.33;100.00;101260.78;5052958;28;20072;-52
2023/03/19 11:12:21;;;;;;;13.10;11.13;;;;;;;17.63;100.00;101261.72;5050383;28;20051;-52
2023/03/19 11:14:52;;;;;;;18.25;11.25;;;;;;;17.92;100.00;101266.28;5066323;28;20060;-53
2023/03/19 11:17:23;;;;;;;13.18;9.63;;;;;;;18.03;100.00;101263.50;5068082;28;20052;-53
2023/03/19 11:19:53;;;;;;;12.25;8.73;;;;;;;18.13;100.00;101268.00;5068008;28;20055;-52
2023/03/19 11:22:26;;;;;;;13.38;8.73;;;;;;;18.65;100.00;101267.69;5059585;28;20381;-48
2023/03/19 11:25:00;;;;;;;14.65;10.73;;;;;;;18.81;100.00;101262.59;5065343;28;20041;-51
2023/03/19 11:27:32;;;;;;;15.85;10.90;;;;;;;18.88;100.00;101262.91;5072171;28;20099;-53